createdAt,value
2022-11-20T00:02:06.154Z,2.70
2022-11-20T00:04:34.856Z,2.60
2022-11-20T00:07:03.670Z,2.60
2022-11-20T00:09:32.452Z,2.60
2022-11-20T00:12:02.479Z,2.70
2022-11-20T00:14:31.161Z,2.70
2022-11-20T00:16:59.809Z,2.70
2022-11-20T00:19:28.801Z,2.70
2022-11-20T00:21:57.521Z,2.70
2022-11-20T00:24:26.174Z,2.70
2022-11-20T00:26:54.741Z,2.70
2022-11-20T00:29:24.777Z,2.80
2022-11-20T00:31:53.419Z,2.80
2022-11-20T00:34:22.038Z,2.90
2022-11-20T00:36:50.557Z,2.90
2022-11-20T00:39:19.446Z,2.90
2022-11-20T00:41:48.272Z,2.80
2022-11-20T00:44:16.829Z,2.80
2022-11-20T00:46:46.784Z,2.80
2022-11-20T00:49:15.374Z,2.80
2022-11-20T00:51:43.994Z,2.90
2022-11-20T00:54:12.825Z,2.90
2022-11-20T00:56:41.771Z,2.90
2022-11-20T00:59:12.016Z,2.90
2022-11-20T01:01:40.851Z,2.90
2022-11-20T01:04:10.821Z,2.80
2022-11-20T01:06:41.359Z,2.70
2022-11-20T01:09:14.553Z,2.60
2022-11-20T01:11:46.205Z,2.70
2022-11-20T01:14:17.973Z,2.80
2022-11-20T01:16:49.521Z,2.80
2022-11-20T01:19:23.090Z,2.80
2022-11-20T01:21:55.709Z,2.80
2022-11-20T01:24:25.299Z,2.80
2022-11-20T01:26:54.397Z,2.80
2022-11-20T01:29:25.621Z,2.70
2022-11-20T01:31:54.956Z,2.60
2022-11-20T01:34:26.034Z,2.70
2022-11-20T01:36:55.103Z,2.70
2022-11-20T01:39:25.825Z,2.70
2022-11-20T01:42:15.632Z,2.80
2022-11-20T01:44:57.332Z,2.80
2022-11-20T01:47:34.220Z,2.90
2022-11-20T01:50:11.920Z,2.90
2022-11-20T01:52:45.792Z,2.90
2022-11-20T01:55:21.371Z,2.90
2022-11-20T01:57:51.567Z,3.00
2022-11-20T02:00:22.761Z,3.00
2022-11-20T02:02:57.268Z,3.10
2022-11-20T02:05:35.096Z,3.00
2022-11-20T02:08:07.990Z,3.10
2022-11-20T02:10:37.960Z,3.10
2022-11-20T02:13:24.540Z,3.10
2022-11-20T02:15:54.059Z,3.10
2022-11-20T02:18:25.291Z,3.10
2022-11-20T02:21:02.119Z,3.10
2022-11-20T02:23:39.050Z,3.20
2022-11-20T02:26:15.196Z,3.20
2022-11-20T02:28:44.115Z,3.20
2022-11-20T02:31:12.629Z,3.20
2022-11-20T02:33:41.208Z,3.20
2022-11-20T02:36:18.035Z,3.10
2022-11-20T02:38:46.841Z,3.10
2022-11-20T02:41:16.903Z,3.00
2022-11-20T02:43:45.546Z,3.10
2022-11-20T02:46:14.120Z,3.10
2022-11-20T02:48:42.807Z,3.00
2022-11-20T02:51:11.538Z,2.90
2022-11-20T02:53:40.119Z,3.00
2022-11-20T02:56:09.692Z,3.00
2022-11-20T02:58:40.221Z,3.00
2022-11-20T03:01:08.882Z,3.00
2022-11-20T03:03:37.485Z,3.00
2022-11-20T03:06:06.644Z,3.10
2022-11-20T03:08:35.261Z,3.10
2022-11-20T03:11:09.147Z,3.10
2022-11-20T03:13:39.175Z,3.10
2022-11-20T03:16:14.292Z,3.10
2022-11-20T03:18:44.154Z,3.20
2022-11-20T03:21:14.918Z,3.20
2022-11-20T03:23:43.561Z,3.10
2022-11-20T03:26:16.264Z,3.20
2022-11-20T03:28:50.503Z,3.30
2022-11-20T03:31:22.902Z,3.40
2022-11-20T03:33:51.621Z,3.40
2022-11-20T03:36:22.580Z,3.30
2022-11-20T03:38:51.847Z,3.20
2022-11-20T03:41:23.682Z,3.20
2022-11-20T03:43:55.917Z,3.40
2022-11-20T03:46:25.881Z,3.30
2022-11-20T03:48:55.004Z,3.30
2022-11-20T03:51:25.961Z,3.20
2022-11-20T03:53:58.882Z,3.30
2022-11-20T03:56:30.770Z,3.10
2022-11-20T03:59:01.370Z,3.10
2022-11-20T04:01:32.893Z,3.10
2022-11-20T04:04:01.655Z,3.10
2022-11-20T04:06:35.229Z,3.10
2022-11-20T04:09:04.515Z,3.20
2022-11-20T04:11:35.968Z,3.20
2022-11-20T04:14:08.726Z,3.30
2022-11-20T04:16:38.385Z,3.30
2022-11-20T04:19:12.521Z,3.30
2022-11-20T04:21:41.072Z,3.30
2022-11-20T04:24:11.349Z,3.40
2022-11-20T04:26:41.111Z,3.40
2022-11-20T04:29:13.357Z,3.30
2022-11-20T04:31:42.294Z,3.20
2022-11-20T04:34:13.818Z,3.10
2022-11-20T04:36:43.460Z,3.00
2022-11-20T04:39:16.715Z,3.10
2022-11-20T04:41:45.595Z,3.00
2022-11-20T04:44:15.784Z,3.10
2022-11-20T04:46:45.407Z,3.20
2022-11-20T04:49:14.530Z,3.20
2022-11-20T04:51:43.132Z,3.20
2022-11-20T04:54:13.571Z,3.20
2022-11-20T04:56:42.176Z,3.20
2022-11-20T04:59:10.782Z,3.20
2022-11-20T05:01:41.238Z,3.10
2022-11-20T05:04:10.354Z,3.10
2022-11-20T05:06:38.943Z,3.10
2022-11-20T05:09:07.544Z,3.00
2022-11-20T05:11:36.061Z,3.00
2022-11-20T05:14:04.733Z,3.10
2022-11-20T05:16:33.310Z,3.00
2022-11-20T05:19:03.345Z,2.90
2022-11-20T05:21:34.010Z,2.90
2022-11-20T05:24:02.574Z,2.90
2022-11-20T05:26:31.173Z,2.90
2022-11-20T05:28:59.729Z,2.90
2022-11-20T05:31:28.590Z,2.90
2022-11-20T05:34:18.284Z,2.90
2022-11-20T05:36:46.822Z,2.80
2022-11-20T05:39:15.347Z,2.80
2022-11-20T05:41:43.902Z,2.80
2022-11-20T05:44:13.237Z,2.80
2022-11-20T05:46:41.779Z,2.80
2022-11-20T05:49:10.481Z,2.90
2022-11-20T05:51:40.466Z,2.80
2022-11-20T05:54:08.974Z,2.80
2022-11-20T05:56:37.796Z,2.90
2022-11-20T05:59:06.575Z,2.90
2022-11-20T06:01:36.949Z,2.90
2022-11-20T06:04:05.896Z,2.90
2022-11-20T06:06:34.455Z,2.80
2022-11-20T06:09:04.448Z,2.90
2022-11-20T06:11:33.075Z,2.90
2022-11-20T06:14:01.603Z,2.90
2022-11-20T06:16:30.174Z,2.90
2022-11-20T06:18:58.745Z,2.90
2022-11-20T06:21:27.313Z,2.90
2022-11-20T06:23:56.137Z,2.90
2022-11-20T06:26:28.379Z,2.90
2022-11-20T06:28:57.917Z,2.80
2022-11-20T06:31:29.306Z,2.80
2022-11-20T06:33:57.862Z,2.80
2022-11-20T06:36:26.452Z,2.80
2022-11-20T06:38:55.581Z,2.80
2022-11-20T06:41:26.342Z,2.90
2022-11-20T06:43:54.999Z,3.00
2022-11-20T06:46:23.971Z,3.00
2022-11-20T06:48:52.903Z,2.90
2022-11-20T06:51:22.427Z,2.90
2022-11-20T06:53:51.659Z,3.00
2022-11-20T06:56:20.270Z,3.00
2022-11-20T06:58:50.289Z,2.90
2022-11-20T07:01:18.951Z,3.00
2022-11-20T07:03:54.282Z,3.00
2022-11-20T07:06:23.201Z,3.10
2022-11-20T07:08:53.823Z,3.20
2022-11-20T07:11:22.504Z,3.20
2022-11-20T07:13:52.459Z,3.20
2022-11-20T07:16:21.036Z,3.30
2022-11-20T07:18:51.089Z,3.30
2022-11-20T07:21:19.996Z,3.40
2022-11-20T07:23:49.239Z,3.40
2022-11-20T07:26:17.864Z,3.40
2022-11-20T07:28:47.742Z,3.40
2022-11-20T07:31:19.699Z,3.40
2022-11-20T07:33:48.737Z,3.40
2022-11-20T07:36:17.576Z,3.40
2022-11-20T07:38:46.147Z,3.40
2022-11-20T07:41:14.646Z,3.40
2022-11-20T07:43:43.246Z,3.40
2022-11-20T07:46:11.935Z,3.40
2022-11-20T07:48:42.018Z,3.40
2022-11-20T07:51:10.741Z,3.50
2022-11-20T07:53:39.250Z,3.50
2022-11-20T07:56:08.587Z,3.50
2022-11-20T07:58:37.196Z,3.40
2022-11-20T08:01:07.648Z,3.40
2022-11-20T08:03:38.726Z,3.50
2022-11-20T08:06:10.341Z,3.50
2022-11-20T08:08:42.932Z,3.50
2022-11-20T08:11:29.270Z,3.50
2022-11-20T08:14:16.802Z,3.50
2022-11-20T08:16:47.777Z,3.50
2022-11-20T08:19:18.336Z,3.50
2022-11-20T08:21:48.368Z,3.40
2022-11-20T08:24:16.954Z,3.40
2022-11-20T08:26:45.530Z,3.50
2022-11-20T08:29:14.230Z,3.50
2022-11-20T08:31:42.832Z,3.60
2022-11-20T08:34:16.223Z,3.60
2022-11-20T08:36:48.718Z,3.60
2022-11-20T08:39:17.399Z,3.60
2022-11-20T08:41:46.022Z,3.60
2022-11-20T08:44:14.746Z,3.60
2022-11-20T08:46:44.970Z,3.50
2022-11-20T08:49:15.917Z,3.60
2022-11-20T08:51:44.769Z,3.50
2022-11-20T08:54:14.959Z,3.70
2022-11-20T08:56:43.541Z,3.80
2022-11-20T08:59:36.718Z,3.80
2022-11-20T09:02:00.793Z,3.90
2022-11-20T09:04:29.456Z,3.80
2022-11-20T09:06:58.167Z,3.90
2022-11-20T09:09:28.212Z,4.10
2022-11-20T09:11:56.854Z,4.00
2022-11-20T09:14:30.093Z,4.10
2022-11-20T09:17:00.115Z,4.20
2022-11-20T09:19:35.399Z,4.20
2022-11-20T09:22:04.567Z,4.30
2022-11-20T09:24:34.550Z,4.30
2022-11-20T09:27:06.426Z,4.40
2022-11-20T09:29:34.952Z,4.40
2022-11-20T09:32:03.774Z,4.50
2022-11-20T09:34:32.367Z,4.60
2022-11-20T09:37:03.140Z,4.60
2022-11-20T09:39:40.021Z,4.80
2022-11-20T09:42:34.220Z,5.00
2022-11-20T09:45:25.840Z,5.10
2022-11-20T09:48:33.254Z,5.30
2022-11-20T09:51:18.520Z,5.30
2022-11-20T09:54:08.224Z,5.40
2022-11-20T09:56:43.362Z,5.60
2022-11-20T09:59:31.473Z,5.70
2022-11-20T10:02:02.938Z,5.60
2022-11-20T10:04:39.630Z,5.50
2022-11-20T10:07:35.271Z,5.50
2022-11-20T10:10:03.994Z,5.40
2022-11-20T10:12:56.869Z,5.40
2022-11-20T10:15:36.337Z,5.30
2022-11-20T10:18:23.061Z,5.20
2022-11-20T10:21:06.300Z,5.00
2022-11-20T10:23:59.104Z,4.90
2022-11-20T10:26:45.278Z,4.90
2022-11-20T10:29:19.224Z,4.90
2022-11-20T10:31:56.613Z,4.90
2022-11-20T10:34:32.769Z,4.90
2022-11-20T10:37:08.033Z,4.90
2022-11-20T10:39:46.031Z,4.90
2022-11-20T10:42:22.106Z,4.90
2022-11-20T10:45:06.870Z,4.80
2022-11-20T10:47:38.500Z,4.80
2022-11-20T10:50:22.267Z,4.90
2022-11-20T10:53:04.078Z,4.90
2022-11-20T10:55:46.295Z,5.00
2022-11-20T10:58:27.533Z,5.00
2022-11-20T11:01:07.725Z,5.10
2022-11-20T11:03:36.929Z,5.20
2022-11-20T11:06:17.655Z,5.10
2022-11-20T11:08:52.021Z,5.10
2022-11-20T11:11:26.028Z,5.00
2022-11-20T11:13:54.818Z,5.00
2022-11-20T11:16:27.694Z,5.00
2022-11-20T11:19:07.960Z,5.10
2022-11-20T11:21:37.850Z,5.20
2022-11-20T11:24:34.620Z,5.20
2022-11-20T11:27:00.991Z,5.20
2022-11-20T11:29:31.718Z,5.20
2022-11-20T11:32:13.799Z,5.20
2022-11-20T11:34:42.980Z,5.20
2022-11-20T11:37:22.573Z,5.30
2022-11-20T11:40:03.886Z,5.30
2022-11-20T11:42:45.795Z,5.30
2022-11-20T11:45:18.479Z,5.30
2022-11-20T11:47:50.847Z,5.30
2022-11-20T11:50:23.301Z,5.30
2022-11-20T11:53:14.355Z,5.30
2022-11-20T11:55:48.470Z,5.40
2022-11-20T11:58:34.511Z,5.40
2022-11-20T12:01:15.943Z,5.40
2022-11-20T12:03:57.991Z,5.40
2022-11-20T12:06:30.895Z,5.50
2022-11-20T12:09:05.362Z,5.50
2022-11-20T12:11:42.238Z,5.60
2022-11-20T12:14:20.784Z,5.50
2022-11-20T12:16:49.814Z,5.60
2022-11-20T12:19:19.912Z,5.60
2022-11-20T12:22:05.144Z,5.70
2022-11-20T12:24:47.984Z,5.80
2022-11-20T12:28:05.582Z,5.90
2022-11-20T12:30:44.004Z,5.90
2022-11-20T12:34:02.970Z,5.90
2022-11-20T12:36:43.275Z,5.80
2022-11-20T12:39:44.001Z,5.80
2022-11-20T12:43:20.136Z,5.80
2022-11-20T12:46:09.471Z,5.90
2022-11-20T12:49:12.388Z,5.80
2022-11-20T12:52:15.844Z,5.80
2022-11-20T12:55:16.096Z,5.90
2022-11-20T12:57:56.094Z,5.80
2022-11-20T13:00:26.845Z,5.80
2022-11-20T13:03:34.257Z,5.80
2022-11-20T13:06:15.802Z,5.80
2022-11-20T13:08:54.599Z,5.90
2022-11-20T13:11:34.768Z,5.90
2022-11-20T13:14:28.938Z,5.90
2022-11-20T13:17:07.009Z,5.90
2022-11-20T13:19:36.425Z,5.90
2022-11-20T13:22:05.058Z,5.90
2022-11-20T13:24:35.540Z,5.80
2022-11-20T13:27:22.093Z,5.80
2022-11-20T13:30:14.097Z,5.80
2022-11-20T13:32:52.895Z,5.80
2022-11-20T13:35:32.802Z,5.80
2022-11-20T13:38:11.107Z,5.70
2022-11-20T13:40:54.417Z,5.70
2022-11-20T13:43:37.022Z,5.70
2022-11-20T13:46:08.463Z,5.70
2022-11-20T13:48:42.695Z,5.70
2022-11-20T13:51:32.345Z,5.80
2022-11-20T13:54:36.171Z,5.90
2022-11-20T13:57:29.377Z,6.00
2022-11-20T14:00:07.690Z,6.00
2022-11-20T14:02:36.740Z,6.10
2022-11-20T14:05:07.941Z,6.10
2022-11-20T14:07:44.485Z,6.10
2022-11-20T14:10:29.944Z,6.10
2022-11-20T14:13:13.051Z,6.00
2022-11-20T14:15:45.233Z,6.00
2022-11-20T14:18:17.706Z,6.00
2022-11-20T14:20:46.829Z,6.00
2022-11-20T14:23:29.467Z,6.00
2022-11-20T14:25:59.318Z,6.00
2022-11-20T14:28:32.279Z,6.00
2022-11-20T14:31:01.106Z,6.00
2022-11-20T14:33:30.906Z,5.90
2022-11-20T14:36:00.786Z,5.90
2022-11-20T14:38:31.555Z,5.80
2022-11-20T14:41:09.712Z,5.80
2022-11-20T14:43:40.229Z,5.70
2022-11-20T14:46:12.152Z,5.70
2022-11-20T14:48:46.678Z,5.70
2022-11-20T14:51:30.734Z,5.60
2022-11-20T14:54:10.618Z,5.60
2022-11-20T14:56:39.583Z,5.60
2022-11-20T14:59:10.757Z,5.60
2022-11-20T15:01:39.764Z,5.60
2022-11-20T15:04:12.682Z,5.60
2022-11-20T15:06:53.070Z,5.60
2022-11-20T15:09:23.817Z,5.50
2022-11-20T15:12:00.411Z,5.40
2022-11-20T15:14:33.584Z,5.40
2022-11-20T15:17:02.662Z,5.40
2022-11-20T15:19:31.654Z,5.30
2022-11-20T15:22:00.283Z,5.30
2022-11-20T15:24:28.926Z,5.30
2022-11-20T15:26:57.636Z,5.30
2022-11-20T15:29:26.831Z,5.20
2022-11-20T15:31:57.573Z,5.10
2022-11-20T15:34:26.364Z,5.10
2022-11-20T15:36:55.477Z,5.00
2022-11-20T15:39:24.223Z,5.00
2022-11-20T15:41:52.849Z,5.00
2022-11-20T15:44:21.749Z,5.00
2022-11-20T15:46:50.515Z,4.90
2022-11-20T15:49:22.750Z,4.90
2022-11-20T15:51:53.733Z,4.90
2022-11-20T15:54:24.777Z,4.80
2022-11-20T15:56:54.399Z,4.80
2022-11-20T15:59:23.178Z,4.70
2022-11-20T16:01:52.127Z,4.70
2022-11-20T16:04:22.637Z,4.70
2022-11-20T16:06:51.349Z,4.70
2022-11-20T16:09:19.922Z,4.70
2022-11-20T16:11:48.477Z,4.70
2022-11-20T16:14:34.703Z,4.60
2022-11-20T16:17:03.251Z,4.70
2022-11-20T16:19:33.341Z,4.70
2022-11-20T16:22:03.349Z,4.70
2022-11-20T16:24:32.537Z,4.70
2022-11-20T16:27:01.067Z,4.70
2022-11-20T16:29:29.665Z,4.70
2022-11-20T16:31:59.540Z,4.70
2022-11-20T16:34:28.449Z,4.60
2022-11-20T16:36:58.704Z,4.70
2022-11-20T16:39:28.034Z,4.70
2022-11-20T16:41:56.613Z,4.70
2022-11-20T16:44:25.745Z,4.60
2022-11-20T16:46:54.712Z,4.50
2022-11-20T16:49:23.534Z,4.40
2022-11-20T16:51:52.173Z,4.40
2022-11-20T16:54:22.436Z,4.50
2022-11-20T16:56:53.519Z,4.50
2022-11-20T16:59:22.121Z,4.50
2022-11-20T17:01:50.933Z,4.40
2022-11-20T17:04:19.733Z,4.40
2022-11-20T17:06:48.315Z,4.30
2022-11-20T17:09:16.898Z,4.30
2022-11-20T17:11:46.876Z,4.30
2022-11-20T17:14:15.497Z,4.20
2022-11-20T17:16:44.166Z,4.20
2022-11-20T17:19:13.672Z,4.30
2022-11-20T17:21:42.755Z,4.20
2022-11-20T17:24:15.979Z,4.20
2022-11-20T17:26:47.317Z,4.20
2022-11-20T17:29:18.358Z,4.20
2022-11-20T17:31:48.831Z,4.20
2022-11-20T17:34:18.258Z,4.20
2022-11-20T17:36:47.237Z,4.20
2022-11-20T17:39:17.879Z,4.30
2022-11-20T17:42:08.723Z,4.30
2022-11-20T17:44:37.466Z,4.20
2022-11-20T17:47:06.364Z,4.20
2022-11-20T17:49:36.605Z,4.30
2022-11-20T17:52:05.888Z,4.20
2022-11-20T17:54:34.554Z,4.30
2022-11-20T17:57:21.644Z,4.30
2022-11-20T17:59:50.256Z,4.30
2022-11-20T18:02:18.774Z,4.30
2022-11-20T18:04:47.419Z,4.30
2022-11-20T18:07:16.085Z,4.20
2022-11-20T18:09:44.763Z,4.20
2022-11-20T18:12:14.780Z,4.40
2022-11-20T18:14:43.742Z,4.30
2022-11-20T18:17:17.019Z,4.30
2022-11-20T18:20:07.066Z,4.20
2022-11-20T18:22:36.585Z,4.20
2022-11-20T18:25:05.625Z,4.20
2022-11-20T18:27:35.660Z,4.20
2022-11-20T18:30:04.331Z,4.30
2022-11-20T18:32:33.233Z,4.30
2022-11-20T18:35:01.938Z,4.30
2022-11-20T18:37:32.191Z,4.30
2022-11-20T18:40:00.943Z,4.30
2022-11-20T18:42:46.781Z,4.40
2022-11-20T18:45:16.888Z,4.40
2022-11-20T18:47:45.462Z,4.40
2022-11-20T18:50:14.152Z,4.40
2022-11-20T18:52:46.939Z,4.40
2022-11-20T18:55:15.880Z,4.30
2022-11-20T18:57:44.738Z,4.30
2022-11-20T19:00:16.321Z,4.30
2022-11-20T19:02:45.059Z,4.30
2022-11-20T19:05:15.544Z,4.30
2022-11-20T19:07:44.985Z,4.30
2022-11-20T19:10:13.778Z,4.20
2022-11-20T19:12:42.585Z,4.20
2022-11-20T19:15:12.308Z,4.20
2022-11-20T19:17:42.373Z,4.20
2022-11-20T19:20:12.109Z,4.20
2022-11-20T19:22:40.731Z,4.10
2022-11-20T19:25:10.456Z,4.00
2022-11-20T19:27:39.201Z,4.00
2022-11-20T19:30:10.039Z,4.00
2022-11-20T19:32:39.169Z,4.00
2022-11-20T19:35:12.750Z,4.00
2022-11-20T19:37:41.368Z,4.10
2022-11-20T19:40:10.947Z,4.10
2022-11-20T19:42:39.785Z,4.10
2022-11-20T19:45:10.493Z,4.10
2022-11-20T19:48:06.857Z,4.20
2022-11-20T19:50:29.736Z,4.10
2022-11-20T19:52:58.962Z,4.10
2022-11-20T19:55:27.847Z,4.10
2022-11-20T19:57:56.547Z,4.10
2022-11-20T20:00:31.223Z,4.10
2022-11-20T20:03:01.469Z,4.20
2022-11-20T20:05:31.804Z,4.20
2022-11-20T20:08:00.399Z,4.30
2022-11-20T20:10:29.560Z,4.20
2022-11-20T20:12:58.464Z,4.20
2022-11-20T20:15:27.279Z,4.20
2022-11-20T20:17:56.430Z,4.20
2022-11-20T20:20:26.274Z,4.20
2022-11-20T20:22:56.268Z,4.20
2022-11-20T20:25:24.887Z,4.20
2022-11-20T20:27:53.499Z,4.30
2022-11-20T20:30:22.162Z,4.20
2022-11-20T20:32:55.918Z,4.20
2022-11-20T20:35:25.020Z,4.20
2022-11-20T20:37:55.152Z,4.20
2022-11-20T20:40:24.028Z,4.30
2022-11-20T20:42:52.597Z,4.30
2022-11-20T20:45:21.252Z,4.30
2022-11-20T20:47:49.965Z,4.30
2022-11-20T20:50:18.900Z,4.30
2022-11-20T20:52:47.456Z,4.30
2022-11-20T20:55:17.564Z,4.40
2022-11-20T20:57:46.570Z,4.40
2022-11-20T21:00:16.463Z,4.30
2022-11-20T21:02:45.197Z,4.30
2022-11-20T21:05:13.921Z,4.20
2022-11-20T21:07:56.318Z,4.20
2022-11-20T21:10:26.345Z,4.10
2022-11-20T21:12:57.796Z,4.20
2022-11-20T21:15:26.677Z,4.20
2022-11-20T21:17:55.476Z,4.20
2022-11-20T21:20:41.360Z,4.20
2022-11-20T21:23:11.472Z,4.20
2022-11-20T21:25:42.423Z,4.20
2022-11-20T21:28:16.841Z,4.20
2022-11-20T21:30:46.788Z,4.20
2022-11-20T21:33:16.073Z,4.20
2022-11-20T21:35:44.626Z,4.20
2022-11-20T21:38:13.200Z,4.20
2022-11-20T21:40:43.075Z,4.20
2022-11-20T21:43:11.652Z,4.20
2022-11-20T21:45:40.256Z,4.30
2022-11-20T21:48:08.976Z,4.30
2022-11-20T21:50:37.619Z,4.30
2022-11-20T21:53:09.594Z,4.30
2022-11-20T21:55:38.204Z,4.30
2022-11-20T21:58:08.270Z,4.20
2022-11-20T22:00:36.813Z,4.30
2022-11-20T22:03:05.659Z,4.30
2022-11-20T22:05:34.173Z,4.30
2022-11-20T22:08:03.343Z,4.40
2022-11-20T22:10:31.958Z,4.30
2022-11-20T22:13:14.301Z,4.30
2022-11-20T22:15:59.928Z,4.30
2022-11-20T22:18:29.151Z,4.20
2022-11-20T22:20:58.055Z,4.10
2022-11-20T22:23:26.689Z,4.10
2022-11-20T22:25:55.327Z,4.00
2022-11-20T22:28:23.933Z,4.00
2022-11-20T22:30:53.897Z,4.10
2022-11-20T22:33:22.517Z,4.10
2022-11-20T22:35:51.151Z,4.00
2022-11-20T22:38:19.781Z,4.10
2022-11-20T22:40:48.685Z,4.00
2022-11-20T22:43:17.250Z,4.00
2022-11-20T22:45:46.558Z,3.90
2022-11-20T22:48:16.510Z,3.90
2022-11-20T22:50:45.272Z,3.90
2022-11-20T22:53:13.811Z,3.90
2022-11-20T22:55:42.345Z,4.00
2022-11-20T22:58:10.985Z,4.00
2022-11-20T23:00:39.506Z,4.00
2022-11-20T23:03:08.098Z,4.10
2022-11-20T23:05:38.027Z,4.10
2022-11-20T23:08:07.075Z,4.10
2022-11-20T23:10:35.742Z,4.10
2022-11-20T23:13:04.370Z,4.10
2022-11-20T23:15:35.706Z,4.10
2022-11-20T23:18:04.202Z,4.10
2022-11-20T23:20:32.743Z,4.10
2022-11-20T23:23:02.714Z,4.20
2022-11-20T23:25:31.576Z,4.10
2022-11-20T23:28:00.105Z,4.10
2022-11-20T23:30:28.633Z,4.10
2022-11-20T23:32:57.191Z,4.00
2022-11-20T23:35:25.819Z,3.90
2022-11-20T23:37:54.394Z,3.80
2022-11-20T23:40:24.348Z,3.70
2022-11-20T23:43:10.279Z,3.80
2022-11-20T23:45:40.693Z,3.80
2022-11-20T23:48:09.498Z,3.90
2022-11-20T23:50:38.105Z,3.90
2022-11-20T23:53:06.898Z,3.90
2022-11-20T23:55:37.238Z,3.90
2022-11-20T23:58:06.512Z,3.90
